createdAt,value
2022-09-23T00:01:10.228Z,95107.27
2022-09-23T00:03:39.155Z,95100.52
2022-09-23T00:06:07.833Z,95102.81
2022-09-23T00:08:35.157Z,95103.05
2022-09-23T00:11:10.791Z,95102.52
2022-09-23T00:13:38.755Z,95099.66
2022-09-23T00:16:07.565Z,95101.20
2022-09-23T00:18:33.774Z,95099.08
2022-09-23T00:21:10.032Z,95094.55
2022-09-23T00:23:37.185Z,95095.99
2022-09-23T00:26:05.498Z,95094.86
2022-09-23T00:28:32.689Z,95098.03
2022-09-23T00:31:08.150Z,95092.70
2022-09-23T00:33:34.821Z,95093.63
2022-09-23T00:36:03.163Z,95089.52
2022-09-23T00:38:29.503Z,95094.64
2022-09-23T00:40:58.004Z,95093.34
2022-09-23T00:43:43.115Z,95092.23
2022-09-23T00:46:16.092Z,95091.40
2022-09-23T00:48:43.525Z,95093.76
2022-09-23T00:51:13.506Z,95090.14
2022-09-23T00:53:40.973Z,95086.46
2022-09-23T00:56:09.396Z,95085.65
2022-09-23T00:58:39.225Z,95086.00
2022-09-23T01:01:05.549Z,95085.00
2022-09-23T01:03:32.020Z,95088.86
2022-09-23T01:05:58.837Z,95087.41
2022-09-23T01:08:26.734Z,95088.50
2022-09-23T01:11:10.400Z,95089.51
2022-09-23T01:14:01.356Z,95084.97
2022-09-23T01:16:37.507Z,95082.94
2022-09-23T01:19:03.657Z,95085.02
2022-09-23T01:22:06.613Z,95083.73
2022-09-23T01:24:46.315Z,95086.77
2022-09-23T01:27:31.405Z,95087.25
2022-09-23T01:30:09.745Z,95088.29
2022-09-23T01:33:04.437Z,95090.10
2022-09-23T01:35:59.784Z,95089.73
2022-09-23T01:38:35.404Z,95087.04
2022-09-23T01:41:49.924Z,95087.85
2022-09-23T01:44:22.556Z,95089.13
2022-09-23T01:47:25.057Z,95086.83
2022-09-23T01:50:02.887Z,95086.86
2022-09-23T01:52:47.332Z,95089.05
2022-09-23T01:55:25.401Z,95091.09
2022-09-23T01:58:04.497Z,95085.86
2022-09-23T02:00:35.352Z,95086.27
2022-09-23T02:03:12.765Z,95084.90
2022-09-23T02:05:47.690Z,95083.61
2022-09-23T02:08:20.786Z,95082.31
2022-09-23T02:11:00.074Z,95084.81
2022-09-23T02:13:42.048Z,95085.23
2022-09-23T02:16:42.007Z,95087.44
2022-09-23T02:19:26.813Z,95085.66
2022-09-23T02:22:00.749Z,95083.92
2022-09-23T02:24:31.248Z,95086.08
2022-09-23T02:27:12.362Z,95090.38
2022-09-23T02:29:50.775Z,95089.46
2022-09-23T02:32:25.957Z,95085.91
2022-09-23T02:35:07.579Z,95087.70
2022-09-23T02:37:47.143Z,95089.73
2022-09-23T02:40:23.006Z,95089.13
2022-09-23T02:43:05.649Z,95090.29
2022-09-23T02:45:33.235Z,95085.30
2022-09-23T02:48:09.169Z,95086.62
2022-09-23T02:50:37.729Z,95084.87
2022-09-23T02:53:04.455Z,95082.18
2022-09-23T02:55:33.865Z,95087.98
2022-09-23T02:58:02.015Z,95087.55
2022-09-23T03:00:53.554Z,95089.94
2022-09-23T03:03:48.200Z,95090.80
2022-09-23T03:06:24.415Z,95096.54
2022-09-23T03:09:35.460Z,95095.70
2022-09-23T03:12:26.799Z,95099.42
2022-09-23T03:14:58.407Z,95102.91
2022-09-23T03:17:46.274Z,95099.14
2022-09-23T03:20:26.042Z,95101.15
2022-09-23T03:23:00.345Z,95099.91
2022-09-23T03:25:31.113Z,95101.21
2022-09-23T03:28:00.609Z,95099.35
2022-09-23T03:30:28.115Z,95100.14
2022-09-23T03:32:56.839Z,95102.61
2022-09-23T03:35:26.956Z,95103.54
2022-09-23T03:38:13.000Z,95103.16
2022-09-23T03:40:47.223Z,95106.10
2022-09-23T03:43:13.998Z,95112.52
2022-09-23T03:45:42.089Z,95111.67
2022-09-23T03:48:08.416Z,95110.23
2022-09-23T03:50:38.783Z,95112.31
2022-09-23T03:53:04.898Z,95112.39
2022-09-23T03:55:31.838Z,95114.80
2022-09-23T03:57:59.876Z,95118.97
2022-09-23T04:00:27.310Z,95114.88
2022-09-23T04:02:53.456Z,95115.96
2022-09-23T04:05:19.656Z,95120.06
2022-09-23T04:07:45.841Z,95121.21
2022-09-23T04:10:12.022Z,95121.91
2022-09-23T04:12:38.253Z,95121.82
2022-09-23T04:15:05.040Z,95118.96
2022-09-23T04:17:31.149Z,95118.96
2022-09-23T04:19:57.325Z,95121.20
2022-09-23T04:22:25.502Z,95122.97
2022-09-23T04:24:51.583Z,95127.82
2022-09-23T04:27:17.792Z,95125.14
2022-09-23T04:29:44.906Z,95125.15
2022-09-23T04:32:11.313Z,95129.29
2022-09-23T04:34:37.478Z,95130.23
2022-09-23T04:37:03.956Z,95129.54
2022-09-23T04:39:30.431Z,95126.98
2022-09-23T04:41:56.602Z,95130.85
2022-09-23T04:44:22.938Z,95133.47
2022-09-23T04:46:49.279Z,95130.30
2022-09-23T04:49:15.945Z,95127.38
2022-09-23T04:51:43.009Z,95128.99
2022-09-23T04:54:11.189Z,95132.54
2022-09-23T04:56:37.636Z,95129.29
2022-09-23T04:59:03.786Z,95132.98
2022-09-23T05:01:36.591Z,95134.38
2022-09-23T05:04:08.749Z,95135.54
2022-09-23T05:06:35.816Z,95135.23
2022-09-23T05:09:05.294Z,95140.02
2022-09-23T05:11:32.353Z,95139.24
2022-09-23T05:13:58.786Z,95138.23
2022-09-23T05:16:26.700Z,95136.92
2022-09-23T05:18:53.570Z,95137.93
2022-09-23T05:21:23.260Z,95136.09
2022-09-23T05:23:54.258Z,95134.16
2022-09-23T05:26:25.361Z,95136.25
2022-09-23T05:28:52.655Z,95141.56
2022-09-23T05:31:22.177Z,95143.95
2022-09-23T05:33:54.021Z,95149.82
2022-09-23T05:36:21.801Z,95148.12
2022-09-23T05:38:49.341Z,95152.84
2022-09-23T05:41:17.561Z,95149.89
2022-09-23T05:43:44.141Z,95147.80
2022-09-23T05:46:16.592Z,95146.19
2022-09-23T05:48:45.569Z,95148.42
2022-09-23T05:51:18.556Z,95149.44
2022-09-23T05:53:45.157Z,95146.73
2022-09-23T05:56:16.784Z,95146.27
2022-09-23T05:58:43.442Z,95146.66
2022-09-23T06:01:12.836Z,95146.73
2022-09-23T06:03:40.346Z,95143.50
2022-09-23T06:06:07.458Z,95150.14
2022-09-23T06:08:34.086Z,95152.68
2022-09-23T06:11:08.519Z,95154.70
2022-09-23T06:13:38.149Z,95152.48
2022-09-23T06:16:10.298Z,95157.27
2022-09-23T06:18:41.475Z,95156.10
2022-09-23T06:21:11.334Z,95158.41
2022-09-23T06:23:40.820Z,95162.20
2022-09-23T06:26:09.978Z,95154.79
2022-09-23T06:28:38.156Z,95159.48
2022-09-23T06:31:13.328Z,95159.80
2022-09-23T06:33:42.320Z,95160.11
2022-09-23T06:36:09.917Z,95159.58
2022-09-23T06:38:39.537Z,95164.43
2022-09-23T06:41:05.805Z,95164.67
2022-09-23T06:43:31.949Z,95163.18
2022-09-23T06:46:00.225Z,95167.59
2022-09-23T06:48:27.889Z,95166.34
2022-09-23T06:50:57.951Z,95167.97
2022-09-23T06:53:24.206Z,95172.37
2022-09-23T06:56:03.368Z,95177.92
2022-09-23T06:58:31.339Z,95180.33
2022-09-23T07:01:06.992Z,95179.46
2022-09-23T07:03:34.099Z,95184.24
2022-09-23T07:06:01.317Z,95181.48
2022-09-23T07:08:30.099Z,95185.25
2022-09-23T07:10:58.541Z,95181.86
2022-09-23T07:13:24.858Z,95182.85
2022-09-23T07:15:52.781Z,95177.36
2022-09-23T07:18:20.258Z,95177.51
2022-09-23T07:20:46.419Z,95178.42
2022-09-23T07:23:12.801Z,95177.48
2022-09-23T07:25:39.546Z,95175.24
2022-09-23T07:28:06.700Z,95179.02
2022-09-23T07:30:37.129Z,95183.03
2022-09-23T07:33:12.552Z,95184.96
2022-09-23T07:35:47.227Z,95189.12
2022-09-23T07:38:13.381Z,95191.90
2022-09-23T07:40:39.587Z,95196.91
2022-09-23T07:43:09.646Z,95199.77
2022-09-23T07:45:38.475Z,95196.06
2022-09-23T07:48:04.807Z,95198.42
2022-09-23T07:50:31.751Z,95200.13
2022-09-23T07:52:57.950Z,95197.25
2022-09-23T07:55:24.151Z,95195.16
2022-09-23T07:57:50.385Z,95196.70
2022-09-23T08:00:17.384Z,95194.68
2022-09-23T08:02:43.543Z,95194.99
2022-09-23T08:05:09.820Z,95195.60
2022-09-23T08:07:36.157Z,95198.66
2022-09-23T08:10:03.132Z,95199.97
2022-09-23T08:12:32.546Z,95197.01
2022-09-23T08:15:00.894Z,95197.83
2022-09-23T08:17:29.870Z,95197.27
2022-09-23T08:19:55.991Z,95202.10
2022-09-23T08:22:35.447Z,95200.74
2022-09-23T08:25:03.275Z,95199.86
2022-09-23T08:27:32.914Z,95198.98
2022-09-23T08:30:00.623Z,95194.77
2022-09-23T08:32:32.058Z,95192.35
2022-09-23T08:34:59.390Z,95192.34
2022-09-23T08:37:27.205Z,95190.05
2022-09-23T08:39:55.065Z,95187.87
2022-09-23T08:42:42.411Z,95188.12
2022-09-23T08:45:18.431Z,95186.48
2022-09-23T08:47:53.378Z,95184.11
2022-09-23T08:50:23.874Z,95181.17
2022-09-23T08:53:30.624Z,95183.55
2022-09-23T08:55:59.745Z,95183.83
2022-09-23T08:59:11.407Z,95181.98
2022-09-23T09:01:54.332Z,95184.13
2022-09-23T09:04:44.032Z,95183.81
2022-09-23T09:07:35.646Z,95186.05
2022-09-23T09:10:21.043Z,95182.94
2022-09-23T09:13:25.793Z,95186.66
2022-09-23T09:16:10.996Z,95186.64
2022-09-23T09:18:46.202Z,95186.30
2022-09-23T09:21:14.397Z,95183.08
2022-09-23T09:23:57.401Z,95182.08
2022-09-23T09:26:27.632Z,95186.48
2022-09-23T09:29:34.748Z,95182.52
2022-09-23T09:32:29.382Z,95173.11
2022-09-23T09:35:01.588Z,95176.17
2022-09-23T09:37:41.693Z,95174.27
2022-09-23T09:40:25.210Z,95176.54
2022-09-23T09:42:55.644Z,95180.55
2022-09-23T09:45:53.859Z,95182.44
2022-09-23T09:48:45.410Z,95191.95
2022-09-23T09:51:32.627Z,95196.66
2022-09-23T09:54:28.362Z,95193.34
2022-09-23T09:57:02.504Z,95188.07
2022-09-23T09:59:39.359Z,95184.84
2022-09-23T10:02:33.412Z,95186.17
2022-09-23T10:05:20.053Z,95192.30
2022-09-23T10:07:48.438Z,95194.19
2022-09-23T10:10:33.445Z,95196.61
2022-09-23T10:13:15.269Z,95195.13
2022-09-23T10:15:45.230Z,95195.42
2022-09-23T10:18:46.954Z,95187.45
2022-09-23T10:21:27.807Z,95189.77
2022-09-23T10:24:09.063Z,95189.59
2022-09-23T10:26:44.166Z,95188.09
2022-09-23T10:30:00.656Z,95189.55
2022-09-23T10:32:43.376Z,95195.89
2022-09-23T10:35:15.976Z,95190.58
2022-09-23T10:38:00.622Z,95191.92
2022-09-23T10:40:51.776Z,95190.48
2022-09-23T10:44:08.844Z,95189.27
2022-09-23T10:46:53.623Z,95186.33
2022-09-23T10:49:38.612Z,95180.77
2022-09-23T10:52:22.675Z,95173.23
2022-09-23T10:55:13.390Z,95173.99
2022-09-23T10:57:51.963Z,95167.91
2022-09-23T11:00:37.401Z,95161.66
2022-09-23T11:03:22.909Z,95149.05
2022-09-23T11:05:48.940Z,95150.13
2022-09-23T11:08:34.011Z,95153.02
2022-09-23T11:11:18.852Z,95154.31
2022-09-23T11:14:21.648Z,95153.75
2022-09-23T11:16:57.612Z,95150.77
2022-09-23T11:19:52.575Z,95150.67
2022-09-23T11:22:38.240Z,95140.66
2022-09-23T11:25:07.308Z,95136.33
2022-09-23T11:27:51.620Z,95127.70
2022-09-23T11:30:22.656Z,95124.02
2022-09-23T11:35:56.934Z,95130.48
2022-09-23T11:38:44.045Z,95128.70
2022-09-23T11:41:27.559Z,95127.61
2022-09-23T11:44:23.102Z,95122.14
2022-09-23T11:47:07.677Z,95118.32
2022-09-23T11:49:46.057Z,95124.40
2022-09-23T11:52:29.235Z,95122.23
2022-09-23T11:55:10.070Z,95122.56
2022-09-23T11:58:06.149Z,95113.86
2022-09-23T12:00:38.891Z,95114.04
2022-09-23T12:03:06.478Z,95106.67
2022-09-23T12:05:39.530Z,95099.11
2022-09-23T12:08:22.745Z,95103.61
2022-09-23T12:11:27.868Z,95096.83
2022-09-23T12:14:34.344Z,95097.50
2022-09-23T12:17:14.286Z,95089.48
2022-09-23T12:19:42.082Z,95086.71
2022-09-23T12:22:20.140Z,95085.38
2022-09-23T12:24:58.469Z,95084.61
2022-09-23T12:27:37.780Z,95076.27
2022-09-23T12:30:29.478Z,95077.19
2022-09-23T12:33:09.637Z,95071.66
2022-09-23T12:35:44.349Z,95066.65
2022-09-23T12:38:32.207Z,95072.21
2022-09-23T12:40:59.466Z,95070.40
2022-09-23T12:43:35.196Z,95069.94
2022-09-23T12:46:27.813Z,95070.47
2022-09-23T12:49:00.640Z,95068.15
2022-09-23T12:51:29.778Z,95061.23
2022-09-23T12:54:05.213Z,95065.83
2022-09-23T12:56:34.082Z,95057.66
2022-09-23T12:59:11.720Z,95057.45
2022-09-23T13:01:38.765Z,95063.14
2022-09-23T13:04:23.417Z,95061.77
2022-09-23T13:07:08.724Z,95059.91
2022-09-23T13:10:27.183Z,95054.55
2022-09-23T13:12:55.405Z,95051.80
2022-09-23T13:15:34.220Z,95052.48
2022-09-23T13:18:19.773Z,95051.92
2022-09-23T13:20:47.869Z,95053.88
2022-09-23T13:23:16.832Z,95052.69
2022-09-23T13:25:51.812Z,95048.98
2022-09-23T13:28:32.598Z,95046.26
2022-09-23T13:31:07.636Z,95047.09
2022-09-23T13:33:51.430Z,95045.16
2022-09-23T13:36:20.051Z,95040.54
2022-09-23T13:39:02.034Z,95037.94
2022-09-23T13:41:28.737Z,95041.51
2022-09-23T13:43:58.402Z,95043.95
2022-09-23T13:46:34.774Z,95040.95
2022-09-23T13:49:02.870Z,95037.48
2022-09-23T13:51:34.592Z,95032.81
2022-09-23T13:54:03.560Z,95031.04
2022-09-23T13:56:34.824Z,95029.98
2022-09-23T13:59:25.317Z,95028.41
2022-09-23T14:02:20.279Z,95026.95
2022-09-23T14:04:46.503Z,95023.27
2022-09-23T14:07:15.333Z,95025.89
2022-09-23T14:09:46.308Z,95023.48
2022-09-23T14:12:13.042Z,95015.77
2022-09-23T14:14:41.510Z,95012.38
2022-09-23T14:17:09.762Z,95013.27
2022-09-23T14:19:36.827Z,95011.98
2022-09-23T14:22:02.944Z,95012.81
2022-09-23T14:24:29.051Z,95017.31
2022-09-23T14:27:06.344Z,95015.36
2022-09-23T14:29:36.089Z,95012.20
2022-09-23T14:32:12.245Z,95012.08
2022-09-23T14:34:51.065Z,95012.71
2022-09-23T14:37:38.458Z,95009.55
2022-09-23T14:40:19.025Z,95011.98
2022-09-23T14:42:51.817Z,95008.70
2022-09-23T14:45:22.457Z,95012.01
2022-09-23T14:47:53.232Z,95012.96
2022-09-23T14:50:43.283Z,95015.33
2022-09-23T14:53:22.084Z,95013.27
2022-09-23T14:56:11.237Z,95009.12
2022-09-23T14:58:52.281Z,95006.48
2022-09-23T15:01:34.221Z,95012.19
2022-09-23T15:04:23.421Z,95009.19
2022-09-23T15:07:15.683Z,95010.74
2022-09-23T15:09:43.643Z,95010.23
2022-09-23T15:12:21.297Z,95010.17
2022-09-23T15:14:53.976Z,95012.70
2022-09-23T15:17:23.027Z,95010.77
2022-09-23T15:19:56.328Z,95008.59
2022-09-23T15:22:24.778Z,95008.28
2022-09-23T15:24:53.011Z,95011.83
2022-09-23T15:27:35.036Z,95009.96
2022-09-23T15:30:16.804Z,95008.34
2022-09-23T15:32:45.288Z,95013.23
2022-09-23T15:35:25.097Z,95014.27
2022-09-23T15:37:53.559Z,95013.35
2022-09-23T15:40:30.879Z,95011.34
2022-09-23T15:43:00.112Z,95009.44
2022-09-23T15:45:33.472Z,95005.77
2022-09-23T15:48:06.861Z,95011.59
2022-09-23T15:50:35.387Z,95011.16
2022-09-23T15:53:02.090Z,95018.72
2022-09-23T15:55:28.431Z,95021.82
2022-09-23T15:57:54.713Z,95021.40
2022-09-23T16:00:21.036Z,95021.01
2022-09-23T16:02:49.461Z,95019.34
2022-09-23T16:05:34.982Z,95020.91
2022-09-23T16:08:07.858Z,95025.46
2022-09-23T16:10:35.745Z,95026.73
2022-09-23T16:13:04.458Z,95029.77
2022-09-23T16:15:32.625Z,95030.73
2022-09-23T16:17:59.867Z,95029.08
2022-09-23T16:20:29.256Z,95029.91
2022-09-23T16:23:00.688Z,95028.75
2022-09-23T16:25:31.409Z,95024.79
2022-09-23T16:27:58.454Z,95025.77
2022-09-23T16:30:27.125Z,95022.42
2022-09-23T16:32:54.178Z,95028.36
2022-09-23T16:35:26.366Z,95027.36
2022-09-23T16:37:52.673Z,95029.74
2022-09-23T16:40:21.520Z,95030.52
2022-09-23T16:42:49.301Z,95027.08
2022-09-23T16:45:18.529Z,95027.04
2022-09-23T16:48:04.351Z,95025.60
2022-09-23T16:50:39.075Z,95022.19
2022-09-23T16:53:06.978Z,95023.52
2022-09-23T16:55:38.088Z,95026.17
2022-09-23T16:58:06.165Z,95029.80
2022-09-23T17:00:53.961Z,95033.70
2022-09-23T17:03:39.123Z,95034.36
2022-09-23T17:06:08.044Z,95042.41
2022-09-23T17:08:34.584Z,95043.55
2022-09-23T17:11:03.995Z,95044.87
2022-09-23T17:13:40.010Z,95044.55
2022-09-23T17:16:09.452Z,95047.96
2022-09-23T17:18:38.764Z,95048.54
2022-09-23T17:21:26.317Z,95053.56
2022-09-23T17:24:51.989Z,95055.46
2022-09-23T17:27:19.364Z,95054.67
2022-09-23T17:29:45.660Z,95055.45
2022-09-23T17:32:11.810Z,95058.06
2022-09-23T17:34:37.911Z,95063.27
2022-09-23T17:37:04.130Z,95069.21
2022-09-23T17:39:31.195Z,95071.55
2022-09-23T17:41:58.020Z,95078.27
2022-09-23T17:44:39.309Z,95076.48
2022-09-23T17:47:05.763Z,95077.77
2022-09-23T17:52:27.477Z,95078.27
2022-09-23T17:54:54.491Z,95084.00
2022-09-23T17:57:21.443Z,95086.08
2022-09-23T17:59:50.229Z,95091.09
2022-09-23T18:02:16.815Z,95089.02
2022-09-23T18:04:42.990Z,95092.00
2022-09-23T18:07:09.162Z,95092.34
2022-09-23T18:09:35.378Z,95094.88
2022-09-23T18:12:01.737Z,95094.48
2022-09-23T18:14:28.962Z,95100.77
2022-09-23T18:16:55.136Z,95100.44
2022-09-23T18:19:24.046Z,95104.44
2022-09-23T18:21:53.943Z,95103.57
2022-09-23T18:24:31.731Z,95108.66
2022-09-23T18:26:59.282Z,95110.71
2022-09-23T18:29:26.199Z,95111.40
2022-09-23T18:31:52.583Z,95112.88
2022-09-23T18:34:19.973Z,95111.55
2022-09-23T18:36:46.643Z,95111.23
2022-09-23T18:39:12.926Z,95109.05
2022-09-23T18:41:40.625Z,95112.80
2022-09-23T18:44:06.934Z,95113.11
2022-09-23T18:46:33.136Z,95113.64
2022-09-23T18:49:18.512Z,95112.44
2022-09-23T18:51:55.190Z,95116.48
2022-09-23T18:54:27.141Z,95113.90
2022-09-23T18:56:53.335Z,95118.20
2022-09-23T18:59:24.135Z,95119.60
2022-09-23T19:01:50.819Z,95121.19
2022-09-23T19:04:19.803Z,95121.02
2022-09-23T19:06:46.587Z,95125.89
2022-09-23T19:09:14.283Z,95125.17
2022-09-23T19:11:40.423Z,95127.95
2022-09-23T19:14:10.771Z,95128.17
2022-09-23T19:16:38.587Z,95132.22
2022-09-23T19:19:05.645Z,95134.64
2022-09-23T19:21:32.934Z,95134.88
2022-09-23T19:24:04.967Z,95136.85
2022-09-23T19:26:34.442Z,95145.49
2022-09-23T19:29:02.800Z,95145.27
2022-09-23T19:31:32.822Z,95150.52
2022-09-23T19:34:01.673Z,95147.05
2022-09-23T19:36:33.769Z,95150.55
2022-09-23T19:39:04.231Z,95152.19
2022-09-23T19:41:32.838Z,95148.91
2022-09-23T19:44:02.788Z,95147.41
2022-09-23T19:46:34.537Z,95149.31
2022-09-23T19:49:00.728Z,95152.92
2022-09-23T19:51:27.789Z,95156.48
2022-09-23T19:53:53.963Z,95157.46
2022-09-23T19:56:20.121Z,95160.14
2022-09-23T19:58:50.606Z,95158.38
2022-09-23T20:01:18.064Z,95163.31
2022-09-23T20:03:45.155Z,95168.19
2022-09-23T20:06:11.325Z,95165.27
2022-09-23T20:08:38.141Z,95169.90
2022-09-23T20:11:19.081Z,95168.00
2022-09-23T20:13:50.173Z,95172.01
2022-09-23T20:16:19.220Z,95175.98
2022-09-23T20:18:50.751Z,95183.34
2022-09-23T20:21:16.860Z,95183.84
2022-09-23T20:23:43.145Z,95192.67
2022-09-23T20:26:28.161Z,95192.48
2022-09-23T20:28:54.931Z,95195.51
2022-09-23T20:31:22.875Z,95192.62
2022-09-23T20:33:57.907Z,95197.70
2022-09-23T20:36:28.695Z,95200.61
2022-09-23T20:39:00.348Z,95200.90
2022-09-23T20:41:29.208Z,95202.76
2022-09-23T20:44:00.143Z,95204.13
2022-09-23T20:46:28.110Z,95204.70
2022-09-23T20:48:55.682Z,95201.34
2022-09-23T20:51:23.521Z,95199.39
2022-09-23T20:53:54.068Z,95203.10
2022-09-23T20:56:21.221Z,95203.83
2022-09-23T20:58:49.825Z,95203.55
2022-09-23T21:01:16.983Z,95208.70
2022-09-23T21:03:45.962Z,95206.87
2022-09-23T21:06:14.020Z,95204.12
2022-09-23T21:08:41.783Z,95203.16
2022-09-23T21:11:11.827Z,95200.70
2022-09-23T21:13:38.648Z,95201.80
2022-09-23T21:16:11.065Z,95200.58
2022-09-23T21:18:38.059Z,95197.34
2022-09-23T21:21:05.772Z,95198.54
2022-09-23T21:23:38.455Z,95199.02
2022-09-23T21:26:07.243Z,95200.22
2022-09-23T21:28:35.348Z,95192.10
2022-09-23T21:31:04.779Z,95191.19
2022-09-23T21:33:31.413Z,95192.90
2022-09-23T21:36:02.998Z,95191.38
2022-09-23T21:38:30.320Z,95189.16
2022-09-23T21:41:01.236Z,95186.86
2022-09-23T21:43:32.743Z,95193.77
2022-09-23T21:46:04.742Z,95192.63
2022-09-23T21:48:33.645Z,95192.03
2022-09-23T21:51:01.980Z,95192.98
2022-09-23T21:53:29.762Z,95188.60
2022-09-23T21:56:05.179Z,95191.66
2022-09-23T21:58:32.648Z,95192.08
2022-09-23T22:00:59.026Z,95195.92
2022-09-23T22:03:25.528Z,95197.14
2022-09-23T22:06:01.975Z,95190.43
2022-09-23T22:08:36.419Z,95187.14
2022-09-23T22:11:05.055Z,95184.06
2022-09-23T22:13:31.235Z,95182.60
2022-09-23T22:16:00.871Z,95181.21
2022-09-23T22:18:28.107Z,95177.06
2022-09-23T22:20:58.554Z,95183.04
2022-09-23T22:23:24.792Z,95183.52
2022-09-23T22:26:02.817Z,95185.40
2022-09-23T22:28:51.302Z,95188.90
2022-09-23T22:31:36.012Z,95189.64
2022-09-23T22:34:02.180Z,95187.02
2022-09-23T22:36:28.290Z,95188.66
2022-09-23T22:39:00.162Z,95193.26
2022-09-23T22:41:27.049Z,95189.64
2022-09-23T22:43:53.379Z,95188.90
2022-09-23T22:46:21.622Z,95190.16
2022-09-23T22:48:51.755Z,95188.30
2022-09-23T22:51:17.877Z,95192.50
2022-09-23T22:53:44.115Z,95191.05
2022-09-23T22:56:10.338Z,95189.22
2022-09-23T22:58:36.493Z,95190.40
2022-09-23T23:01:02.610Z,95186.55
2022-09-23T23:03:30.019Z,95186.65
2022-09-23T23:06:00.651Z,95183.42
2022-09-23T23:08:28.413Z,95184.06
2022-09-23T23:10:56.125Z,95185.56
2022-09-23T23:13:27.912Z,95187.13
2022-09-23T23:15:54.078Z,95186.66
2022-09-23T23:18:20.236Z,95184.27
2022-09-23T23:20:46.329Z,95183.52
2022-09-23T23:23:12.466Z,95184.68
2022-09-23T23:25:38.758Z,95186.33
2022-09-23T23:28:05.419Z,95180.70
2022-09-23T23:30:33.330Z,95181.48
2022-09-23T23:32:59.531Z,95177.00
2022-09-23T23:35:25.587Z,95179.73
2022-09-23T23:37:51.664Z,95175.23
2022-09-23T23:40:19.687Z,95173.48
2022-09-23T23:42:46.471Z,95168.54
2022-09-23T23:45:12.618Z,95168.16
2022-09-23T23:47:39.671Z,95165.94
2022-09-23T23:50:06.099Z,95163.48
2022-09-23T23:52:32.237Z,95163.11
2022-09-23T23:54:58.365Z,95162.59
2022-09-23T23:57:24.456Z,95159.90
2022-09-23T23:59:50.560Z,95158.84
